Portada
METAR-TAF:

METAR-TAF

Aeropuertos :

Aeropuerto Internacional de Puerto Iguazú

Iguazú, Argentina

latitud: 25-44S, longitud: 054-28W, altitud: 270 m

Observación

El informe se hizo hace 15 minutos, a las 00:00 UTC
Viento calma
Temperatura 16°C
Humedad 94%
Presión 1018 hPa
Visibilidad 10 km o más
sin nubes por debajo de 1500 m y sin presencia de cumulonimbus.

METAR: SARI 040000Z 00000KT CAVOK 16/15 Q1018

Hora: 21:15 (00:15 UTC)

Pronóstico

El informe se hizo hace 7 horas y 15 minutos, a las 17:00 UTC
Pronóstico válido del 03 a las 18 UTC al 04 a las 18 UTC
Viento 3 kt con dirección variable
Visibilidad 10 km o más
sin nubes por debajo de 1500 m y sin presencia de cumulonimbus.
Probabilidad 30%
del 04 a las 09 UTC al 04 a las 11 UTC
Visibilidad: 2000 m
neblina

TAF: SARI 031700Z 0318/0418 VRB03KT CAVOK TX17/0319Z TN08/0410Z PROB30 0409/0411 2000 BR NSC

Observaciones y pronósticos meteorológicos de más de 4000 aeropuertos (mensajes METAR y TAF).

Los puntos amarillos y rojos representan las estaciones disponibles.

Ponga el ratón en el punto deseado para ver el nombre de la estación.

Haga clic para ver las observaciones y los pronósticos meteorológicos.

Para cambiar el mapa : haga clic en los botones verdes con una cruz de color negro para hacer un zoom, en el botón verde con un guión para alejar o en las flechas verdes para mapas adyacentes.


METAR-TAF: